sensor_id;sensor_type;location;lat;lon;timestamp;P1;durP1;ratioP1;P2;durP2;ratioP2
39612;SDS011;25303;48.896;13.342;2022-12-05T00:00:05;11.65;;;5.47;;
39612;SDS011;25303;48.896;13.342;2022-12-05T00:02:49;12.40;;;6.47;;
39612;SDS011;25303;48.896;13.342;2022-12-05T00:05:34;16.95;;;6.90;;
39612;SDS011;25303;48.896;13.342;2022-12-05T00:08:21;10.18;;;5.57;;
39612;SDS011;25303;48.896;13.342;2022-12-05T00:11:09;9.15;;;4.85;;
39612;SDS011;25303;48.896;13.342;2022-12-05T00:13:53;10.27;;;5.70;;
39612;SDS011;25303;48.896;13.342;2022-12-05T00:19:21;36.80;;;7.35;;
39612;SDS011;25303;48.896;13.342;2022-12-05T00:22:05;10.93;;;5.80;;
39612;SDS011;25303;48.896;13.342;2022-12-05T00:24:48;9.70;;;5.47;;
39612;SDS011;25303;48.896;13.342;2022-12-05T00:27:31;8.77;;;5.30;;
39612;SDS011;25303;48.896;13.342;2022-12-05T00:30:14;9.05;;;4.90;;
39612;SDS011;25303;48.896;13.342;2022-12-05T00:32:57;9.05;;;5.15;;
39612;SDS011;25303;48.896;13.342;2022-12-05T00:35:40;10.63;;;5.47;;
39612;SDS011;25303;48.896;13.342;2022-12-05T00:38:24;9.52;;;4.80;;
39612;SDS011;25303;48.896;13.342;2022-12-05T00:41:08;9.88;;;5.32;;
39612;SDS011;25303;48.896;13.342;2022-12-05T00:43:53;9.57;;;4.80;;
39612;SDS011;25303;48.896;13.342;2022-12-05T00:46:36;9.85;;;5.07;;
39612;SDS011;25303;48.896;13.342;2022-12-05T00:49:19;10.18;;;5.15;;
39612;SDS011;25303;48.896;13.342;2022-12-05T00:52:02;9.55;;;4.70;;
39612;SDS011;25303;48.896;13.342;2022-12-05T00:54:47;7.95;;;4.70;;
39612;SDS011;25303;48.896;13.342;2022-12-05T00:57:30;14.48;;;4.55;;
39612;SDS011;25303;48.896;13.342;2022-12-05T01:00:14;17.15;;;5.13;;
39612;SDS011;25303;48.896;13.342;2022-12-05T01:02:57;9.32;;;4.78;;
39612;SDS011;25303;48.896;13.342;2022-12-05T01:05:40;48.58;;;6.15;;
39612;SDS011;25303;48.896;13.342;2022-12-05T01:08:23;10.35;;;5.10;;
39612;SDS011;25303;48.896;13.342;2022-12-05T01:11:08;7.43;;;4.38;;
39612;SDS011;25303;48.896;13.342;2022-12-05T01:13:52;160.77;;;9.55;;
39612;SDS011;25303;48.896;13.342;2022-12-05T01:16:37;14.65;;;5.70;;
39612;SDS011;25303;48.896;13.342;2022-12-05T01:19:22;8.73;;;4.60;;
39612;SDS011;25303;48.896;13.342;2022-12-05T01:22:06;9.70;;;5.00;;
39612;SDS011;25303;48.896;13.342;2022-12-05T01:24:49;8.85;;;4.75;;
39612;SDS011;25303;48.896;13.342;2022-12-05T01:27:33;6.88;;;4.47;;
39612;SDS011;25303;48.896;13.342;2022-12-05T01:30:16;9.77;;;4.82;;
39612;SDS011;25303;48.896;13.342;2022-12-05T01:33:00;12.98;;;5.45;;
39612;SDS011;25303;48.896;13.342;2022-12-05T01:35:43;9.30;;;5.32;;
39612;SDS011;25303;48.896;13.342;2022-12-05T01:38:26;7.72;;;4.82;;
39612;SDS011;25303;48.896;13.342;2022-12-05T01:41:10;8.18;;;4.97;;
39612;SDS011;25303;48.896;13.342;2022-12-05T01:43:57;401.05;;;14.18;;
39612;SDS011;25303;48.896;13.342;2022-12-05T01:46:43;23.35;;;5.75;;
39612;SDS011;25303;48.896;13.342;2022-12-05T01:49:32;154.57;;;9.02;;
39612;SDS011;25303;48.896;13.342;2022-12-05T01:52:19;30.63;;;6.57;;
39612;SDS011;25303;48.896;13.342;2022-12-05T01:55:07;104.18;;;9.00;;
39612;SDS011;25303;48.896;13.342;2022-12-05T01:57:55;9.55;;;5.22;;
39612;SDS011;25303;48.896;13.342;2022-12-05T02:00:40;7.68;;;4.85;;
39612;SDS011;25303;48.896;13.342;2022-12-05T02:03:23;207.93;;;10.25;;
39612;SDS011;25303;48.896;13.342;2022-12-05T02:06:06;145.52;;;8.88;;
39612;SDS011;25303;48.896;13.342;2022-12-05T02:08:51;338.08;;;13.52;;
39612;SDS011;25303;48.896;13.342;2022-12-05T02:11:34;108.88;;;8.85;;
39612;SDS011;25303;48.896;13.342;2022-12-05T02:14:30;30.58;;;6.70;;
39612;SDS011;25303;48.896;13.342;2022-12-05T02:17:22;7.57;;;4.32;;
39612;SDS011;25303;48.896;13.342;2022-12-05T02:20:15;10.45;;;4.53;;
39612;SDS011;25303;48.896;13.342;2022-12-05T02:29:50;49.80;;;5.78;;
39612;SDS011;25303;48.896;13.342;2022-12-05T02:32:46;7.55;;;4.10;;
39612;SDS011;25303;48.896;13.342;2022-12-05T02:35:40;8.65;;;4.65;;
39612;SDS011;25303;48.896;13.342;2022-12-05T02:38:38;6.40;;;3.53;;
39612;SDS011;25303;48.896;13.342;2022-12-05T02:41:27;7.80;;;4.28;;
39612;SDS011;25303;48.896;13.342;2022-12-05T02:44:15;8.75;;;4.72;;
39612;SDS011;25303;48.896;13.342;2022-12-05T02:47:04;149.23;;;6.85;;
39612;SDS011;25303;48.896;13.342;2022-12-05T02:49:50;231.55;;;8.02;;
39612;SDS011;25303;48.896;13.342;2022-12-05T02:52:34;7.93;;;4.57;;
39612;SDS011;25303;48.896;13.342;2022-12-05T02:55:17;6.82;;;3.58;;
39612;SDS011;25303;48.896;13.342;2022-12-05T02:58:02;10.70;;;3.50;;
39612;SDS011;25303;48.896;13.342;2022-12-05T03:00:49;7.63;;;3.80;;
39612;SDS011;25303;48.896;13.342;2022-12-05T03:03:36;8.43;;;4.55;;
39612;SDS011;25303;48.896;13.342;2022-12-05T03:06:20;5.60;;;3.40;;
39612;SDS011;25303;48.896;13.342;2022-12-05T03:09:07;7.28;;;3.63;;
39612;SDS011;25303;48.896;13.342;2022-12-05T03:11:53;6.50;;;3.38;;
39612;SDS011;25303;48.896;13.342;2022-12-05T03:14:41;6.10;;;3.17;;
39612;SDS011;25303;48.896;13.342;2022-12-05T03:17:29;6.72;;;3.53;;
39612;SDS011;25303;48.896;13.342;2022-12-05T03:20:19;8.45;;;4.25;;
39612;SDS011;25303;48.896;13.342;2022-12-05T03:23:10;6.57;;;3.38;;
39612;SDS011;25303;48.896;13.342;2022-12-05T03:25:59;5.00;;;2.80;;
39612;SDS011;25303;48.896;13.342;2022-12-05T03:28:53;7.30;;;3.47;;
39612;SDS011;25303;48.896;13.342;2022-12-05T03:31:43;6.25;;;3.38;;
39612;SDS011;25303;48.896;13.342;2022-12-05T03:34:36;8.05;;;4.15;;
39612;SDS011;25303;48.896;13.342;2022-12-05T03:37:32;7.30;;;3.70;;
39612;SDS011;25303;48.896;13.342;2022-12-05T03:40:23;6.35;;;3.47;;
39612;SDS011;25303;48.896;13.342;2022-12-05T03:43:12;9.45;;;4.22;;
39612;SDS011;25303;48.896;13.342;2022-12-05T03:46:01;76.45;;;5.55;;
39612;SDS011;25303;48.896;13.342;2022-12-05T03:48:49;7.55;;;4.10;;
39612;SDS011;25303;48.896;13.342;2022-12-05T03:51:38;7.15;;;3.63;;
39612;SDS011;25303;48.896;13.342;2022-12-05T03:54:26;6.60;;;3.45;;
39612;SDS011;25303;48.896;13.342;2022-12-05T03:57:14;98.30;;;5.88;;
39612;SDS011;25303;48.896;13.342;2022-12-05T04:00:03;98.00;;;6.05;;
39612;SDS011;25303;48.896;13.342;2022-12-05T04:02:51;185.45;;;7.68;;
39612;SDS011;25303;48.896;13.342;2022-12-05T04:05:42;7.45;;;4.13;;
39612;SDS011;25303;48.896;13.342;2022-12-05T04:08:28;9.90;;;3.70;;
39612;SDS011;25303;48.896;13.342;2022-12-05T04:11:17;8.80;;;2.80;;
39612;SDS011;25303;48.896;13.342;2022-12-05T04:14:04;6.00;;;3.03;;
39612;SDS011;25303;48.896;13.342;2022-12-05T04:16:52;5.55;;;3.03;;
39612;SDS011;25303;48.896;13.342;2022-12-05T04:19:47;5.28;;;2.88;;
39612;SDS011;25303;48.896;13.342;2022-12-05T04:22:51;6.88;;;2.92;;
39612;SDS011;25303;48.896;13.342;2022-12-05T04:25:35;6.65;;;3.55;;
39612;SDS011;25303;48.896;13.342;2022-12-05T04:28:24;5.22;;;2.72;;
39612;SDS011;25303;48.896;13.342;2022-12-05T04:31:13;5.53;;;3.13;;
39612;SDS011;25303;48.896;13.342;2022-12-05T04:34:00;6.65;;;3.70;;
39612;SDS011;25303;48.896;13.342;2022-12-05T04:36:48;8.68;;;4.82;;
39612;SDS011;25303;48.896;13.342;2022-12-05T04:39:38;13.93;;;4.70;;
39612;SDS011;25303;48.896;13.342;2022-12-05T04:42:27;39.22;;;6.40;;
39612;SDS011;25303;48.896;13.342;2022-12-05T04:45:16;12.57;;;4.95;;
39612;SDS011;25303;48.896;13.342;2022-12-05T04:48:03;7.32;;;4.00;;
39612;SDS011;25303;48.896;13.342;2022-12-05T04:50:49;9.35;;;4.38;;
39612;SDS011;25303;48.896;13.342;2022-12-05T04:53:35;11.55;;;5.57;;
39612;SDS011;25303;48.896;13.342;2022-12-05T04:56:18;9.25;;;5.05;;
39612;SDS011;25303;48.896;13.342;2022-12-05T04:59:03;26.45;;;5.20;;
39612;SDS011;25303;48.896;13.342;2022-12-05T05:01:48;8.55;;;4.20;;
39612;SDS011;25303;48.896;13.342;2022-12-05T05:04:35;16.30;;;4.45;;
39612;SDS011;25303;48.896;13.342;2022-12-05T05:07:22;7.93;;;3.83;;
39612;SDS011;25303;48.896;13.342;2022-12-05T05:10:06;11.65;;;4.78;;
39612;SDS011;25303;48.896;13.342;2022-12-05T05:15:32;8.10;;;3.90;;
39612;SDS011;25303;48.896;13.342;2022-12-05T05:18:17;7.88;;;3.58;;
39612;SDS011;25303;48.896;13.342;2022-12-05T05:20:59;8.40;;;4.15;;
39612;SDS011;25303;48.896;13.342;2022-12-05T05:23:42;13.18;;;6.07;;
39612;SDS011;25303;48.896;13.342;2022-12-05T05:26:26;14.63;;;6.45;;
39612;SDS011;25303;48.896;13.342;2022-12-05T05:29:10;11.70;;;5.40;;
39612;SDS011;25303;48.896;13.342;2022-12-05T05:31:53;10.10;;;5.30;;
39612;SDS011;25303;48.896;13.342;2022-12-05T05:34:38;10.82;;;5.22;;
39612;SDS011;25303;48.896;13.342;2022-12-05T05:37:21;12.30;;;6.05;;
39612;SDS011;25303;48.896;13.342;2022-12-05T05:40:04;17.45;;;6.32;;
39612;SDS011;25303;48.896;13.342;2022-12-05T05:42:51;9.32;;;4.90;;
39612;SDS011;25303;48.896;13.342;2022-12-05T05:45:35;10.43;;;4.80;;
39612;SDS011;25303;48.896;13.342;2022-12-05T05:48:18;8.77;;;4.32;;
39612;SDS011;25303;48.896;13.342;2022-12-05T05:51:03;8.88;;;4.45;;
39612;SDS011;25303;48.896;13.342;2022-12-05T05:53:47;7.75;;;3.83;;
39612;SDS011;25303;48.896;13.342;2022-12-05T05:56:30;8.55;;;4.32;;
39612;SDS011;25303;48.896;13.342;2022-12-05T05:59:12;9.48;;;5.00;;
39612;SDS011;25303;48.896;13.342;2022-12-05T06:01:55;9.20;;;4.15;;
39612;SDS011;25303;48.896;13.342;2022-12-05T06:04:38;8.52;;;4.28;;
39612;SDS011;25303;48.896;13.342;2022-12-05T06:07:23;6.97;;;3.42;;
39612;SDS011;25303;48.896;13.342;2022-12-05T06:10:06;8.98;;;3.90;;
39612;SDS011;25303;48.896;13.342;2022-12-05T06:12:50;9.10;;;3.90;;
39612;SDS011;25303;48.896;13.342;2022-12-05T06:15:32;10.90;;;3.92;;
39612;SDS011;25303;48.896;13.342;2022-12-05T06:18:15;8.95;;;3.75;;
39612;SDS011;25303;48.896;13.342;2022-12-05T06:20:58;7.35;;;3.75;;
39612;SDS011;25303;48.896;13.342;2022-12-05T06:23:43;7.97;;;3.97;;
39612;SDS011;25303;48.896;13.342;2022-12-05T06:29:08;6.35;;;3.25;;
39612;SDS011;25303;48.896;13.342;2022-12-05T06:31:51;6.13;;;3.25;;
39612;SDS011;25303;48.896;13.342;2022-12-05T06:34:35;5.28;;;2.97;;
39612;SDS011;25303;48.896;13.342;2022-12-05T06:37:18;7.38;;;3.53;;
39612;SDS011;25303;48.896;13.342;2022-12-05T06:40:02;6.60;;;3.28;;
39612;SDS011;25303;48.896;13.342;2022-12-05T06:42:46;8.50;;;4.20;;
39612;SDS011;25303;48.896;13.342;2022-12-05T06:45:29;9.05;;;4.38;;
39612;SDS011;25303;48.896;13.342;2022-12-05T06:48:12;9.75;;;4.65;;
39612;SDS011;25303;48.896;13.342;2022-12-05T06:50:55;7.63;;;3.50;;
39612;SDS011;25303;48.896;13.342;2022-12-05T06:53:38;8.82;;;4.57;;
39612;SDS011;25303;48.896;13.342;2022-12-05T06:56:23;8.48;;;4.35;;
39612;SDS011;25303;48.896;13.342;2022-12-05T06:59:06;5.45;;;3.05;;
39612;SDS011;25303;48.896;13.342;2022-12-05T07:01:49;6.25;;;2.80;;
39612;SDS011;25303;48.896;13.342;2022-12-05T07:04:31;6.68;;;3.15;;
39612;SDS011;25303;48.896;13.342;2022-12-05T07:07:14;5.47;;;2.83;;
39612;SDS011;25303;48.896;13.342;2022-12-05T07:09:56;4.10;;;2.28;;
39612;SDS011;25303;48.896;13.342;2022-12-05T07:12:41;5.85;;;2.65;;
39612;SDS011;25303;48.896;13.342;2022-12-05T07:15:24;5.70;;;2.70;;
39612;SDS011;25303;48.896;13.342;2022-12-05T07:18:07;5.95;;;3.35;;
39612;SDS011;25303;48.896;13.342;2022-12-05T07:20:54;6.55;;;3.10;;
39612;SDS011;25303;48.896;13.342;2022-12-05T07:23:55;12.40;;;3.22;;
39612;SDS011;25303;48.896;13.342;2022-12-05T07:26:37;5.40;;;2.72;;
39612;SDS011;25303;48.896;13.342;2022-12-05T07:29:22;4.90;;;2.67;;
39612;SDS011;25303;48.896;13.342;2022-12-05T07:32:05;6.10;;;2.78;;
39612;SDS011;25303;48.896;13.342;2022-12-05T07:34:48;5.85;;;3.05;;
39612;SDS011;25303;48.896;13.342;2022-12-05T07:37:36;5.50;;;2.75;;
39612;SDS011;25303;48.896;13.342;2022-12-05T07:40:18;16.17;;;3.35;;
39612;SDS011;25303;48.896;13.342;2022-12-05T07:43:02;6.80;;;2.72;;
39612;SDS011;25303;48.896;13.342;2022-12-05T07:45:47;5.30;;;3.22;;
39612;SDS011;25303;48.896;13.342;2022-12-05T07:48:30;8.38;;;4.78;;
39612;SDS011;25303;48.896;13.342;2022-12-05T07:51:13;6.45;;;2.72;;
39612;SDS011;25303;48.896;13.342;2022-12-05T07:53:57;60.75;;;2.78;;
39612;SDS011;25303;48.896;13.342;2022-12-05T07:56:41;3.28;;;1.65;;
39612;SDS011;25303;48.896;13.342;2022-12-05T07:59:28;3.20;;;1.90;;
39612;SDS011;25303;48.896;13.342;2022-12-05T08:02:12;3.80;;;1.40;;
39612;SDS011;25303;48.896;13.342;2022-12-05T08:04:55;2.95;;;1.50;;
39612;SDS011;25303;48.896;13.342;2022-12-05T08:07:38;2.70;;;1.55;;
39612;SDS011;25303;48.896;13.342;2022-12-05T08:10:21;3.40;;;1.95;;
39612;SDS011;25303;48.896;13.342;2022-12-05T08:13:04;5.22;;;2.65;;
39612;SDS011;25303;48.896;13.342;2022-12-05T08:15:48;9.88;;;3.53;;
39612;SDS011;25303;48.896;13.342;2022-12-05T08:18:32;4.40;;;2.50;;
39612;SDS011;25303;48.896;13.342;2022-12-05T08:21:16;6.55;;;3.10;;
39612;SDS011;25303;48.896;13.342;2022-12-05T08:24:02;5.80;;;2.85;;
39612;SDS011;25303;48.896;13.342;2022-12-05T08:26:45;6.53;;;3.10;;
39612;SDS011;25303;48.896;13.342;2022-12-05T08:29:28;7.97;;;3.63;;
39612;SDS011;25303;48.896;13.342;2022-12-05T08:32:11;6.15;;;2.65;;
39612;SDS011;25303;48.896;13.342;2022-12-05T08:34:56;6.53;;;1.98;;
39612;SDS011;25303;48.896;13.342;2022-12-05T08:37:38;6.88;;;2.92;;
39612;SDS011;25303;48.896;13.342;2022-12-05T08:40:21;9.70;;;3.63;;
39612;SDS011;25303;48.896;13.342;2022-12-05T08:43:04;7.07;;;3.38;;
39612;SDS011;25303;48.896;13.342;2022-12-05T08:45:48;4.70;;;2.40;;
39612;SDS011;25303;48.896;13.342;2022-12-05T08:48:31;4.47;;;2.40;;
39612;SDS011;25303;48.896;13.342;2022-12-05T08:51:16;32.92;;;4.32;;
39612;SDS011;25303;48.896;13.342;2022-12-05T08:54:00;4.97;;;2.42;;
39612;SDS011;25303;48.896;13.342;2022-12-05T08:56:43;5.78;;;2.65;;
39612;SDS011;25303;48.896;13.342;2022-12-05T08:59:27;4.38;;;1.90;;
39612;SDS011;25303;48.896;13.342;2022-12-05T09:02:10;6.65;;;2.58;;
39612;SDS011;25303;48.896;13.342;2022-12-05T09:04:53;5.18;;;2.10;;
39612;SDS011;25303;48.896;13.342;2022-12-05T09:07:43;4.60;;;2.35;;
39612;SDS011;25303;48.896;13.342;2022-12-05T09:13:09;4.00;;;1.60;;
39612;SDS011;25303;48.896;13.342;2022-12-05T09:15:54;4.88;;;1.90;;
39612;SDS011;25303;48.896;13.342;2022-12-05T09:18:37;3.55;;;1.85;;
39612;SDS011;25303;48.896;13.342;2022-12-05T09:21:21;3.65;;;1.75;;
39612;SDS011;25303;48.896;13.342;2022-12-05T09:24:08;4.35;;;1.90;;
39612;SDS011;25303;48.896;13.342;2022-12-05T09:26:52;3.67;;;1.85;;
39612;SDS011;25303;48.896;13.342;2022-12-05T09:29:35;3.70;;;1.88;;
39612;SDS011;25303;48.896;13.342;2022-12-05T09:32:18;4.70;;;1.55;;
39612;SDS011;25303;48.896;13.342;2022-12-05T09:35:01;14.80;;;5.93;;
39612;SDS011;25303;48.896;13.342;2022-12-05T09:37:44;9.98;;;4.15;;
39612;SDS011;25303;48.896;13.342;2022-12-05T09:40:28;4.60;;;2.60;;
39612;SDS011;25303;48.896;13.342;2022-12-05T09:43:24;3.10;;;1.65;;
39612;SDS011;25303;48.896;13.342;2022-12-05T09:46:14;229.20;;;6.65;;
39612;SDS011;25303;48.896;13.342;2022-12-05T09:49:02;168.90;;;4.85;;
39612;SDS011;25303;48.896;13.342;2022-12-05T09:51:46;25.52;;;2.20;;
39612;SDS011;25303;48.896;13.342;2022-12-05T09:54:35;12.50;;;3.47;;
39612;SDS011;25303;48.896;13.342;2022-12-05T09:57:27;4.28;;;2.28;;
39612;SDS011;25303;48.896;13.342;2022-12-05T10:00:15;3.60;;;1.65;;
39612;SDS011;25303;48.896;13.342;2022-12-05T10:03:01;4.45;;;2.30;;
39612;SDS011;25303;48.896;13.342;2022-12-05T10:06:03;6.55;;;3.20;;
39612;SDS011;25303;48.896;13.342;2022-12-05T10:08:57;4.28;;;2.30;;
39612;SDS011;25303;48.896;13.342;2022-12-05T10:11:50;11.27;;;3.35;;
39612;SDS011;25303;48.896;13.342;2022-12-05T10:14:41;10.45;;;4.50;;
39612;SDS011;25303;48.896;13.342;2022-12-05T10:17:34;4.15;;;2.35;;
39612;SDS011;25303;48.896;13.342;2022-12-05T10:20:20;27.73;;;2.60;;
39612;SDS011;25303;48.896;13.342;2022-12-05T10:23:07;2.80;;;1.63;;
39612;SDS011;25303;48.896;13.342;2022-12-05T10:26:16;3.10;;;1.70;;
39612;SDS011;25303;48.896;13.342;2022-12-05T10:31:49;3.33;;;1.83;;
39612;SDS011;25303;48.896;13.342;2022-12-05T10:34:39;1.88;;;1.30;;
39612;SDS011;25303;48.896;13.342;2022-12-05T10:37:23;3.90;;;1.80;;
39612;SDS011;25303;48.896;13.342;2022-12-05T10:40:10;147.02;;;4.90;;
39612;SDS011;25303;48.896;13.342;2022-12-05T10:42:53;3.70;;;1.58;;
39612;SDS011;25303;48.896;13.342;2022-12-05T10:45:39;3.05;;;1.50;;
39612;SDS011;25303;48.896;13.342;2022-12-05T10:48:25;2.15;;;1.20;;
39612;SDS011;25303;48.896;13.342;2022-12-05T10:51:12;5.40;;;1.10;;
39612;SDS011;25303;48.896;13.342;2022-12-05T10:53:56;2.10;;;1.10;;
39612;SDS011;25303;48.896;13.342;2022-12-05T10:56:40;2.97;;;1.35;;
39612;SDS011;25303;48.896;13.342;2022-12-05T10:59:38;1.90;;;1.13;;
39612;SDS011;25303;48.896;13.342;2022-12-05T11:02:28;2.42;;;1.30;;
39612;SDS011;25303;48.896;13.342;2022-12-05T11:05:15;6.03;;;1.40;;
39612;SDS011;25303;48.896;13.342;2022-12-05T11:08:16;1.85;;;1.13;;
39612;SDS011;25303;48.896;13.342;2022-12-05T11:11:24;18.15;;;1.45;;
39612;SDS011;25303;48.896;13.342;2022-12-05T11:14:19;2.00;;;1.20;;
39612;SDS011;25303;48.896;13.342;2022-12-05T11:17:04;2.00;;;1.00;;
39612;SDS011;25303;48.896;13.342;2022-12-05T11:19:47;2.95;;;1.73;;
39612;SDS011;25303;48.896;13.342;2022-12-05T11:22:33;3.80;;;2.00;;
39612;SDS011;25303;48.896;13.342;2022-12-05T11:25:22;3.17;;;2.05;;
39612;SDS011;25303;48.896;13.342;2022-12-05T11:28:23;3.78;;;1.92;;
39612;SDS011;25303;48.896;13.342;2022-12-05T11:31:24;2.20;;;1.25;;
39612;SDS011;25303;48.896;13.342;2022-12-05T11:34:11;2.88;;;1.80;;
39612;SDS011;25303;48.896;13.342;2022-12-05T11:37:03;61.13;;;2.75;;
39612;SDS011;25303;48.896;13.342;2022-12-05T11:39:53;25.67;;;1.83;;
39612;SDS011;25303;48.896;13.342;2022-12-05T11:42:37;3.75;;;1.40;;
39612;SDS011;25303;48.896;13.342;2022-12-05T11:45:35;6.53;;;1.90;;
39612;SDS011;25303;48.896;13.342;2022-12-05T11:48:33;2.22;;;1.08;;
39612;SDS011;25303;48.896;13.342;2022-12-05T11:51:37;28.08;;;1.98;;
39612;SDS011;25303;48.896;13.342;2022-12-05T11:54:31;23.83;;;1.77;;
39612;SDS011;25303;48.896;13.342;2022-12-05T11:57:56;4.82;;;1.23;;
39612;SDS011;25303;48.896;13.342;2022-12-05T12:00:55;1.98;;;0.98;;
39612;SDS011;25303;48.896;13.342;2022-12-05T12:03:59;6.40;;;1.42;;
39612;SDS011;25303;48.896;13.342;2022-12-05T12:07:16;23.52;;;2.25;;
39612;SDS011;25303;48.896;13.342;2022-12-05T12:10:14;2.40;;;1.42;;
39612;SDS011;25303;48.896;13.342;2022-12-05T12:13:10;3.13;;;1.27;;
39612;SDS011;25303;48.896;13.342;2022-12-05T12:16:07;2.42;;;1.45;;
39612;SDS011;25303;48.896;13.342;2022-12-05T12:19:06;4.20;;;1.60;;
39612;SDS011;25303;48.896;13.342;2022-12-05T12:22:02;2.58;;;1.50;;
39612;SDS011;25303;48.896;13.342;2022-12-05T12:25:11;3.05;;;1.30;;
39612;SDS011;25303;48.896;13.342;2022-12-05T12:28:06;3.25;;;1.30;;
39612;SDS011;25303;48.896;13.342;2022-12-05T12:31:15;3.53;;;1.92;;
39612;SDS011;25303;48.896;13.342;2022-12-05T12:34:11;7.03;;;2.72;;
39612;SDS011;25303;48.896;13.342;2022-12-05T12:37:22;3.17;;;1.85;;
39612;SDS011;25303;48.896;13.342;2022-12-05T12:40:16;8.60;;;2.22;;
39612;SDS011;25303;48.896;13.342;2022-12-05T12:43:04;6.82;;;2.17;;
39612;SDS011;25303;48.896;13.342;2022-12-05T12:46:21;7.43;;;1.70;;
39612;SDS011;25303;48.896;13.342;2022-12-05T12:49:25;3.08;;;1.50;;
39612;SDS011;25303;48.896;13.342;2022-12-05T12:52:21;13.18;;;2.40;;
39612;SDS011;25303;48.896;13.342;2022-12-05T12:55:09;11.10;;;1.63;;
39612;SDS011;25303;48.896;13.342;2022-12-05T12:58:03;15.80;;;1.75;;
39612;SDS011;25303;48.896;13.342;2022-12-05T13:00:55;2.53;;;1.30;;
39612;SDS011;25303;48.896;13.342;2022-12-05T13:03:46;2.00;;;1.30;;
39612;SDS011;25303;48.896;13.342;2022-12-05T13:06:34;3.80;;;2.20;;
39612;SDS011;25303;48.896;13.342;2022-12-05T13:09:23;14.52;;;5.88;;
39612;SDS011;25303;48.896;13.342;2022-12-05T13:12:12;20.48;;;8.93;;
39612;SDS011;25303;48.896;13.342;2022-12-05T13:14:58;17.30;;;8.90;;
39612;SDS011;25303;48.896;13.342;2022-12-05T13:17:44;13.77;;;6.50;;
39612;SDS011;25303;48.896;13.342;2022-12-05T13:20:31;7.70;;;3.75;;
39612;SDS011;25303;48.896;13.342;2022-12-05T13:23:17;5.53;;;2.67;;
39612;SDS011;25303;48.896;13.342;2022-12-05T13:26:06;3.75;;;1.83;;
39612;SDS011;25303;48.896;13.342;2022-12-05T13:28:51;4.35;;;1.70;;
39612;SDS011;25303;48.896;13.342;2022-12-05T13:31:37;3.22;;;1.48;;
39612;SDS011;25303;48.896;13.342;2022-12-05T13:34:34;3.47;;;1.40;;
39612;SDS011;25303;48.896;13.342;2022-12-05T13:37:29;2.97;;;1.33;;
39612;SDS011;25303;48.896;13.342;2022-12-05T13:40:31;3.70;;;1.73;;
39612;SDS011;25303;48.896;13.342;2022-12-05T13:43:34;3.03;;;1.63;;
39612;SDS011;25303;48.896;13.342;2022-12-05T13:46:32;4.15;;;1.55;;
39612;SDS011;25303;48.896;13.342;2022-12-05T13:49:18;3.58;;;1.42;;
39612;SDS011;25303;48.896;13.342;2022-12-05T13:52:12;2.40;;;1.47;;
39612;SDS011;25303;48.896;13.342;2022-12-05T13:55:03;2.63;;;1.40;;
39612;SDS011;25303;48.896;13.342;2022-12-05T13:58:02;6.03;;;2.17;;
39612;SDS011;25303;48.896;13.342;2022-12-05T14:01:44;5.75;;;2.30;;
39612;SDS011;25303;48.896;13.342;2022-12-05T14:07:38;9.75;;;2.83;;
39612;SDS011;25303;48.896;13.342;2022-12-05T14:11:05;5.47;;;2.60;;
39612;SDS011;25303;48.896;13.342;2022-12-05T14:13:47;5.82;;;1.95;;
39612;SDS011;25303;48.896;13.342;2022-12-05T14:19:39;3.55;;;1.60;;
39612;SDS011;25303;48.896;13.342;2022-12-05T14:26:03;2.60;;;1.33;;
39612;SDS011;25303;48.896;13.342;2022-12-05T14:29:00;7.15;;;2.40;;
39612;SDS011;25303;48.896;13.342;2022-12-05T14:31:53;6.50;;;3.20;;
39612;SDS011;25303;48.896;13.342;2022-12-05T14:34:53;6.40;;;3.00;;
39612;SDS011;25303;48.896;13.342;2022-12-05T14:37:39;5.25;;;2.70;;
39612;SDS011;25303;48.896;13.342;2022-12-05T14:40:30;5.38;;;2.30;;
39612;SDS011;25303;48.896;13.342;2022-12-05T14:43:16;4.57;;;1.80;;
39612;SDS011;25303;48.896;13.342;2022-12-05T14:46:03;3.60;;;1.77;;
39612;SDS011;25303;48.896;13.342;2022-12-05T14:48:48;4.40;;;2.22;;
39612;SDS011;25303;48.896;13.342;2022-12-05T14:54:39;2.70;;;1.50;;
39612;SDS011;25303;48.896;13.342;2022-12-05T14:57:22;5.63;;;2.03;;
39612;SDS011;25303;48.896;13.342;2022-12-05T15:00:06;4.90;;;2.13;;
39612;SDS011;25303;48.896;13.342;2022-12-05T15:02:59;4.25;;;2.17;;
39612;SDS011;25303;48.896;13.342;2022-12-05T15:05:46;7.50;;;2.50;;
39612;SDS011;25303;48.896;13.342;2022-12-05T15:08:33;5.53;;;2.63;;
39612;SDS011;25303;48.896;13.342;2022-12-05T15:11:25;17.00;;;6.93;;
39612;SDS011;25303;48.896;13.342;2022-12-05T15:14:15;26.55;;;14.15;;
39612;SDS011;25303;48.896;13.342;2022-12-05T15:17:02;20.67;;;12.60;;
39612;SDS011;25303;48.896;13.342;2022-12-05T15:19:50;11.35;;;7.25;;
39612;SDS011;25303;48.896;13.342;2022-12-05T15:22:37;8.38;;;5.25;;
39612;SDS011;25303;48.896;13.342;2022-12-05T15:25:28;6.07;;;4.20;;
39612;SDS011;25303;48.896;13.342;2022-12-05T15:28:17;7.45;;;3.80;;
39612;SDS011;25303;48.896;13.342;2022-12-05T15:31:00;7.82;;;3.65;;
39612;SDS011;25303;48.896;13.342;2022-12-05T15:33:48;8.38;;;4.65;;
39612;SDS011;25303;48.896;13.342;2022-12-05T15:36:33;6.40;;;3.47;;
39612;SDS011;25303;48.896;13.342;2022-12-05T15:39:19;5.88;;;2.95;;
39612;SDS011;25303;48.896;13.342;2022-12-05T15:42:10;20.27;;;7.95;;
39612;SDS011;25303;48.896;13.342;2022-12-05T15:45:11;40.80;;;18.60;;
39612;SDS011;25303;48.896;13.342;2022-12-05T15:48:09;19.08;;;9.95;;
39612;SDS011;25303;48.896;13.342;2022-12-05T15:50:57;11.70;;;6.20;;
39612;SDS011;25303;48.896;13.342;2022-12-05T15:53:41;23.15;;;9.38;;
39612;SDS011;25303;48.896;13.342;2022-12-05T15:56:29;10.32;;;5.68;;
39612;SDS011;25303;48.896;13.342;2022-12-05T15:59:19;6.22;;;3.60;;
39612;SDS011;25303;48.896;13.342;2022-12-05T16:02:09;7.03;;;3.40;;
39612;SDS011;25303;48.896;13.342;2022-12-05T16:04:56;4.10;;;2.53;;
39612;SDS011;25303;48.896;13.342;2022-12-05T16:10:23;3.47;;;1.80;;
39612;SDS011;25303;48.896;13.342;2022-12-05T16:13:11;3.97;;;2.15;;
39612;SDS011;25303;48.896;13.342;2022-12-05T16:15:57;24.58;;;9.38;;
39612;SDS011;25303;48.896;13.342;2022-12-05T16:21:30;22.48;;;10.82;;
39612;SDS011;25303;48.896;13.342;2022-12-05T16:24:20;26.88;;;13.10;;
39612;SDS011;25303;48.896;13.342;2022-12-05T16:27:12;28.63;;;15.80;;
39612;SDS011;25303;48.896;13.342;2022-12-05T16:30:08;15.88;;;9.13;;
39612;SDS011;25303;48.896;13.342;2022-12-05T16:33:02;7.70;;;3.95;;
39612;SDS011;25303;48.896;13.342;2022-12-05T16:35:47;8.27;;;3.45;;
39612;SDS011;25303;48.896;13.342;2022-12-05T16:38:30;34.38;;;14.70;;
39612;SDS011;25303;48.896;13.342;2022-12-05T16:41:13;20.67;;;9.77;;
39612;SDS011;25303;48.896;13.342;2022-12-05T16:43:58;26.00;;;9.85;;
39612;SDS011;25303;48.896;13.342;2022-12-05T16:46:42;15.85;;;8.00;;
39612;SDS011;25303;48.896;13.342;2022-12-05T16:49:34;7.63;;;4.00;;
39612;SDS011;25303;48.896;13.342;2022-12-05T16:52:29;207.60;;;5.53;;
39612;SDS011;25303;48.896;13.342;2022-12-05T16:55:12;3.35;;;1.98;;
39612;SDS011;25303;48.896;13.342;2022-12-05T16:57:55;3.40;;;1.85;;
39612;SDS011;25303;48.896;13.342;2022-12-05T17:00:39;4.63;;;1.83;;
39612;SDS011;25303;48.896;13.342;2022-12-05T17:03:22;3.70;;;2.10;;
39612;SDS011;25303;48.896;13.342;2022-12-05T17:06:22;7.53;;;3.60;;
39612;SDS011;25303;48.896;13.342;2022-12-05T17:09:06;8.00;;;3.28;;
39612;SDS011;25303;48.896;13.342;2022-12-05T17:11:50;6.43;;;3.55;;